x

Newport, Or (nwpo3) Weather Station

7:00pm - Sat 19th Aug 2017 All times are PDT. -7 hours from GMT.

  • Wind
    30mph, 36mph gusts
  • Air Temp 57°f
  • Sea Pressure 1020.3mb
  • Newport, Or
  • Newport, Or

More Historic Weather Station data

Upgrade to MSW Pro to gain access to the past 30 days of data for over 8000 Wavebouys and Weather Stations around the globe.

Join

Comparision Forecast

View Surf forecast
   
Sat 08/19 7:00pm 30 36 mph 1020.3mb 57f
6:00pm 24 29 mph 1020.8mb 55f
5:00pm 23 28 mph 1021.2mb 54f
4:00pm 26 29 mph 1021.4mb 54f
3:00pm 22 24 mph 1021.9mb 53f
2:00pm 26 29 mph 1022.2mb 54f
1:00pm 21 23 mph 1022.7mb 53f
12:00pm 23 25 mph 1022.8mb 54f
11:00am 17 18 mph 1022.9mb 53f
10:00am 14 16 mph 1023mb 53f
9:00am 10 13 mph 1023.1mb 53f
8:00am 10 11 mph 1023.1mb 53f
7:00am 13 14 mph 1022.7mb 57f
6:00am 18 22 mph 1022.3mb 56f
5:00am 17 18 mph 1022.2mb 54f
4:00am 13 15 mph 1022.2mb 53f
3:00am 10 13 mph 1022.1mb 56f
2:00am 9 11 mph 1022mb 54f
1:00am 15 18 mph 1021.9mb 54f
12:00am 10 13 mph 1021.9mb 53f
Fri 08/18 11:00pm 10 13 mph 1021.8mb 54f
10:00pm 9 10 mph 1021.9mb 54f
9:00pm 13 14 mph 1022mb 55f
8:00pm 16 17 mph 1021.6mb 55f
7:00pm 10 13 mph 1021.5mb 54f
6:00pm 18 21 mph 1021.7mb 56f
5:00pm 16 18 mph 1021.7mb 54f
4:00pm 16 17 mph 1021.9mb 54f
3:00pm 20 22 mph 1022.3mb 54f
2:00pm 23 25 mph 1022.1mb 54f
1:00pm 15 17 mph 1022.5mb 53f
12:00pm 18 21 mph 1022.5mb 53f
11:00am 18 21 mph 1022.5mb 54f
10:00am 15 17 mph 1022.6mb 53f
9:00am 6 7 mph 1022.5mb 52f
8:00am 2 3 mph 1022.3mb 52f
7:00am 5 5 mph 1021.9mb 50f
6:00am 2 3 mph 1021.3mb 51f
5:00am 2 2 mph 1021.2mb 52f
4:00am  -  1 mph 1021.1mb 52f
3:00am 2 2 mph 1021.1mb 53f
2:00am 2 2 mph 1021mb 53f
1:00am 6 6 mph 1021.6mb 54f
12:00am 16 17 mph 1021.5mb 54f
Thu 08/17 11:00pm 13 14 mph 1021.5mb 54f
10:00pm 18 20 mph 1021.2mb 55f
9:00pm 17 20 mph 1021.3mb 55f
8:00pm 21 24 mph 1020.8mb 55f
7:00pm 16 20 mph 1020.9mb 55f
6:00pm 21 24 mph 1021mb 55f
5:00pm 21 22 mph 1021.4mb 55f
4:00pm 21 23 mph 1021.7mb 55f
3:00pm 22 25 mph 1021.8mb 56f
2:00pm 18 21 mph 1022.1mb 54f
1:00pm 17 20 mph 1022.4mb 55f
12:00pm 16 17 mph 1022.5mb 54f
11:00am 13 15 mph 1022.7mb 55f
10:00am 7 9 mph 1022.7mb 54f
9:00am 6 7 mph 1022.3mb 56f
8:00am 7 8 mph 1022.2mb 54f
7:00am 8 10 mph 1021.7mb 53f
6:00am 5 5 mph 1021.3mb 56f
5:00am 7 8 mph 1021mb 54f
4:00am 7 9 mph 1021mb 54f
3:00am 7 8 mph 1021.1mb 53f
2:00am 8 9 mph 1021.2mb 54f
1:00am 8 8 mph 1021.4mb 55f
12:00am 7 8 mph 1021.3mb 55f
Wed 08/16 11:00pm 14 15 mph 1021mb 56f
10:00pm 15 17 mph 1021mb 55f
9:00pm 14 15 mph 1020.6mb 55f
8:00pm 13 15 mph 1020.1mb 55f
7:00pm 13 15 mph 1020.1mb 55f
6:00pm 21 23 mph 1020mb 55f
5:00pm 14 17 mph 1020.4mb 55f
4:00pm 17 20 mph 1020.7mb 55f
3:00pm 16 18 mph 1020.7mb 55f
2:00pm 16 17 mph 1020.8mb 55f
1:00pm 18 21 mph 1020.6mb 55f
12:00pm 17 20 mph 1020.7mb 55f
11:00am 14 16 mph 1020.5mb 53f
10:00am 11 13 mph 1020.3mb 54f
9:00am 1 2 mph 1020.1mb 54f
8:00am 5 6 mph 1019.8mb 53f
7:00am 3 3 mph 1019.4mb 51f
6:00am 1 2 mph 1018.9mb 51f
5:00am 5 5 mph 1018.5mb 52f
4:00am 3 5 mph 1018.3mb 52f